Time;durP1;ratioP1;P1;durP2;ratioP2;P2;SDS_P1;SDS_P2;PMS_P1;PMS_P2;Temp;Humidity;BMP_temperature;BMP_pressure;BME280_temperature;BME280_humidity;BME280_pressure;Samples;Min_cycle;Max_cycle;Signal;HPM_P1;HPM_P2
2022/11/16 00:02:09;;;;;;;7.17;5.00;;;11.50;99.90;;;;;;5111991;28;20603;-75
2022/11/16 00:04:35;;;;;;;9.63;5.17;;;11.40;99.90;;;;;;5113375;28;20240;-74
2022/11/16 00:07:01;;;;;;;5.50;4.70;;;11.40;99.90;;;;;;5116052;28;20910;-74
2022/11/16 00:09:31;;;;;;;10.03;4.97;;;11.50;99.90;;;;;;5115989;28;20167;-74
2022/11/16 00:11:59;;;;;;;9.07;5.23;;;11.40;99.90;;;;;;5115959;28;20476;-75
2022/11/16 00:14:28;;;;;;;6.07;4.80;;;11.50;99.90;;;;;;5115553;28;20418;-75
2022/11/16 00:16:54;;;;;;;10.80;5.53;;;11.40;99.90;;;;;;5121550;27;20410;-74
2022/11/16 00:19:20;;;;;;;7.40;5.17;;;11.50;99.90;;;;;;5121671;27;20405;-74
2022/11/16 00:21:45;;;;;;;6.90;5.20;;;11.40;99.90;;;;;;5115799;28;20471;-74
2022/11/16 00:24:13;;;;;;;6.57;5.20;;;11.40;99.90;;;;;;5120569;28;20193;-75
2022/11/16 00:26:38;;;;;;;6.90;4.50;;;11.40;99.90;;;;;;5121926;28;20169;-76
2022/11/16 00:29:04;;;;;;;13.73;5.60;;;11.40;99.90;;;;;;5102880;28;20592;-76
2022/11/16 00:31:29;;;;;;;6.90;5.27;;;11.40;99.90;;;;;;5103457;28;20282;-75
2022/11/16 00:33:55;;;;;;;7.67;5.47;;;11.40;99.90;;;;;;5103569;28;20526;-76
2022/11/16 00:36:20;;;;;;;17.13;6.40;;;11.40;99.90;;;;;;5101971;28;20176;-75
2022/11/16 00:38:46;;;;;;;10.17;6.10;;;11.40;99.90;;;;;;5121427;28;20173;-75
2022/11/16 00:41:12;;;;;;;11.70;6.53;;;11.40;99.90;;;;;;5097696;28;20542;-75
2022/11/16 00:43:38;;;;;;;10.73;7.07;;;11.40;99.90;;;;;;5115420;28;20446;-75
2022/11/16 00:46:04;;;;;;;10.57;6.13;;;11.40;99.90;;;;;;5115087;28;20402;-75
2022/11/16 00:48:30;;;;;;;8.83;6.80;;;11.40;99.90;;;;;;5114975;28;20206;-75
2022/11/16 00:50:55;;;;;;;8.50;6.37;;;11.40;99.90;;;;;;5115302;28;20517;-75
2022/11/16 00:53:21;;;;;;;10.00;6.73;;;11.40;99.90;;;;;;5115200;28;20489;-75
2022/11/16 00:55:47;;;;;;;13.47;6.80;;;11.40;99.90;;;;;;5115006;28;20616;-75
2022/11/16 00:58:13;;;;;;;10.87;7.40;;;11.40;99.90;;;;;;5114887;28;20180;-74
2022/11/16 01:00:40;;;;;;;10.00;6.67;;;11.40;99.90;;;;;;5115036;28;20394;-73
2022/11/16 01:03:05;;;;;;;12.17;6.97;;;11.40;99.90;;;;;;5114945;28;20841;-73
2022/11/16 01:05:32;;;;;;;12.70;6.73;;;11.40;99.90;;;;;;5114785;28;20414;-73
2022/11/16 01:07:58;;;;;;;14.60;7.70;;;11.30;99.90;;;;;;5114999;28;20509;-74
2022/11/16 01:10:25;;;;;;;14.17;7.67;;;11.30;99.90;;;;;;5114911;28;20425;-75
2022/11/16 01:12:51;;;;;;;13.20;8.20;;;11.30;99.90;;;;;;5116017;28;20402;-74
2022/11/16 01:15:19;;;;;;;12.03;7.20;;;11.30;99.90;;;;;;5097506;28;20418;-74
2022/11/16 01:17:45;;;;;;;13.70;8.47;;;11.30;99.90;;;;;;5115726;28;20422;-75
2022/11/16 01:20:17;;;;;;;13.50;7.47;;;11.30;99.90;;;;;;5115647;28;20911;-74
2022/11/16 01:22:43;;;;;;;17.87;8.10;;;11.30;99.90;;;;;;5100669;28;20215;-75
2022/11/16 01:25:10;;;;;;;11.03;7.30;;;11.30;99.90;;;;;;5113933;28;20414;-75
2022/11/16 01:27:38;;;;;;;11.80;8.00;;;11.30;99.90;;;;;;5117477;27;20915;-76
2022/11/16 01:30:06;;;;;;;13.87;9.00;;;11.30;99.90;;;;;;5125500;27;20423;-74
2022/11/16 01:32:32;;;;;;;15.50;9.37;;;11.30;99.90;;;;;;5115095;28;20427;-74
2022/11/16 01:34:58;;;;;;;15.80;8.90;;;11.30;99.90;;;;;;5114288;28;20407;-74
2022/11/16 01:37:24;;;;;;;13.37;8.70;;;11.30;99.90;;;;;;5113159;28;20478;-75
2022/11/16 01:39:50;;;;;;;12.30;8.67;;;11.30;99.90;;;;;;5115128;28;20173;-75
2022/11/16 01:42:29;;;;;;;16.00;8.00;;;11.30;99.90;;;;;;5115919;28;20469;-75
2022/11/16 01:45:02;;;;;;;13.40;8.10;;;11.30;99.90;;;;;;5116467;28;20199;-76
2022/11/16 01:47:28;;;;;;;14.43;10.67;;;11.30;99.90;;;;;;5114959;28;20446;-75
2022/11/16 01:50:00;;;;;;;10.90;7.63;;;11.30;99.90;;;;;;5114516;28;20406;-75
2022/11/16 01:52:30;;;;;;;15.37;8.83;;;11.40;99.90;;;;;;5114185;27;20422;-75
2022/11/16 01:54:56;;;;;;;18.27;8.00;;;11.40;99.90;;;;;;5113872;28;20390;-75
2022/11/16 01:57:35;;;;;;;14.47;7.70;;;11.50;99.90;;;;;;5113729;28;20438;-75
2022/11/16 02:00:04;;;;;;;11.53;8.00;;;11.40;99.90;;;;;;5112660;28;20417;-75
2022/11/16 02:02:30;;;;;;;9.50;7.10;;;11.50;99.90;;;;;;5115509;28;20887;-74
2022/11/16 02:04:57;;;;;;;14.87;8.67;;;11.50;99.90;;;;;;5115289;28;20434;-75
2022/11/16 02:10:47;;;;;;;10.57;7.63;;;11.40;99.90;;;;;;5096141;28;20375;-74
2022/11/16 02:13:21;;;;;;;12.53;7.77;;;11.40;99.90;;;;;;5096010;28;20429;-76
2022/11/16 02:15:55;;;;;;;8.00;6.43;;;11.30;99.90;;;;;;5094802;28;20961;-75
2022/11/16 02:18:31;;;;;;;11.80;8.90;;;11.40;99.90;;;;;;5101096;28;20744;-75
2022/11/16 02:21:05;;;;;;;10.90;6.50;;;11.40;99.90;;;;;;5114900;28;20487;-76
2022/11/16 02:23:33;;;;;;;11.67;7.43;;;11.40;99.90;;;;;;5116253;28;20478;-75
2022/11/16 02:26:15;;;;;;;13.43;7.13;;;11.40;99.90;;;;;;5114718;28;20406;-74
2022/11/16 02:29:02;;;;;;;11.67;8.10;;;11.50;99.90;;;;;;5116564;28;20401;-75
2022/11/16 02:31:36;;;;;;;10.00;6.67;;;11.50;99.90;;;;;;5111474;28;20435;-75
2022/11/16 02:34:06;;;;;;;10.53;7.07;;;11.50;99.90;;;;;;5094879;28;20487;-75
2022/11/16 02:36:33;;;;;;;14.00;9.10;;;11.50;99.90;;;;;;5102654;28;20470;-75
2022/11/16 02:39:11;;;;;;;17.10;9.17;;;11.50;99.90;;;;;;5116895;27;20410;-74
2022/11/16 02:41:39;;;;;;;13.60;9.07;;;11.50;99.90;;;;;;5134557;27;20425;-75
2022/11/16 02:44:11;;;;;;;10.00;6.13;;;11.50;99.90;;;;;;5134900;27;20457;-74
2022/11/16 02:46:40;;;;;;;9.00;6.73;;;11.50;99.90;;;;;;5125137;27;20422;-75
2022/11/16 02:49:13;;;;;;;7.80;6.40;;;11.50;99.90;;;;;;5113994;28;20407;-74
2022/11/16 02:51:40;;;;;;;13.03;7.60;;;11.50;99.90;;;;;;5113663;28;20426;-74
2022/11/16 02:54:19;;;;;;;11.47;7.33;;;11.50;99.90;;;;;;5113909;28;20407;-74
2022/11/16 02:56:56;;;;;;;11.07;7.87;;;11.40;99.90;;;;;;5112790;28;20474;-74
2022/11/16 02:59:27;;;;;;;13.97;8.50;;;11.40;99.90;;;;;;5111706;28;20514;-75
2022/11/16 03:02:16;;;;;;;14.80;8.40;;;11.40;99.90;;;;;;5112829;28;20475;-75
2022/11/16 03:04:47;;;;;;;11.97;7.93;;;11.40;99.90;;;;;;5112219;28;20426;-75
2022/11/16 03:07:15;;;;;;;11.17;7.43;;;11.40;99.90;;;;;;5113745;28;20403;-74
2022/11/16 03:09:41;;;;;;;12.73;8.73;;;11.40;99.90;;;;;;5112602;28;20903;-75
2022/11/16 03:12:10;;;;;;;16.43;8.83;;;11.40;99.90;;;;;;5113093;28;20508;-73
2022/11/16 03:14:58;;;;;;;11.10;7.63;;;11.40;99.90;;;;;;5112921;28;20922;-73
2022/11/16 03:17:40;;;;;;;8.80;7.60;;;11.40;99.90;;;;;;5112651;28;20402;-74
2022/11/16 03:20:06;;;;;;;12.00;8.47;;;11.40;99.90;;;;;;5111376;28;20414;-73
2022/11/16 03:22:34;;;;;;;15.90;8.90;;;11.40;99.90;;;;;;5112110;28;20537;-74
2022/11/16 03:25:00;;;;;;;11.30;7.20;;;11.50;99.90;;;;;;5112040;28;20510;-74
2022/11/16 03:28:02;;;;;;;14.20;7.70;;;11.50;99.90;;;;;;5092193;28;20407;-75
2022/11/16 03:30:32;;;;;;;12.63;10.00;;;11.50;99.90;;;;;;5104844;28;20251;-75
2022/11/16 03:33:20;;;;;;;10.63;7.73;;;11.50;99.90;;;;;;5113495;28;20764;-74
2022/11/16 03:36:18;;;;;;;11.07;7.50;;;11.50;99.90;;;;;;5112206;28;20413;-74
2022/11/16 03:38:46;;;;;;;9.60;6.90;;;11.50;99.90;;;;;;5111329;28;20510;-74
2022/11/16 03:41:13;;;;;;;13.27;7.43;;;11.50;99.90;;;;;;5121247;27;20487;-75
2022/11/16 03:43:41;;;;;;;10.43;7.07;;;11.50;99.90;;;;;;5121326;27;20450;-75
2022/11/16 03:46:06;;;;;;;12.10;7.60;;;11.50;99.90;;;;;;5119177;27;20411;-74
2022/11/16 03:48:39;;;;;;;9.73;6.50;;;11.40;99.90;;;;;;5119444;28;20922;-74
2022/11/16 03:51:06;;;;;;;13.10;6.77;;;11.40;99.90;;;;;;5122727;27;20191;-75
2022/11/16 03:53:32;;;;;;;8.93;8.00;;;11.50;99.90;;;;;;5129129;27;20920;-75
2022/11/16 03:55:58;;;;;;;10.00;6.33;;;11.50;99.90;;;;;;5119755;28;20409;-74
2022/11/16 03:58:23;;;;;;;11.53;7.33;;;11.50;99.90;;;;;;5121252;28;20172;-75
2022/11/16 04:00:49;;;;;;;10.17;6.90;;;11.50;99.90;;;;;;5120167;28;20192;-75
2022/11/16 04:03:14;;;;;;;15.57;6.73;;;11.50;99.90;;;;;;5119166;28;20251;-75
2022/11/16 04:25:13;;;;;;;2.37;1.70;;;11.40;99.90;;;;;;5120241;28;20937;-74
2022/11/16 04:30:23;;;;;;;2.20;1.17;;;11.40;99.90;;;;;;5119540;28;20384;-75
2022/11/16 04:38:17;;;;;;;1.60;1.27;;;11.40;99.90;;;;;;5118907;28;20409;-75
2022/11/16 04:40:42;;;;;;;1.73;1.33;;;11.40;99.90;;;;;;5118875;28;20398;-75
2022/11/16 04:43:08;;;;;;;2.63;1.60;;;11.40;99.90;;;;;;5118708;28;20207;-75
2022/11/16 04:48:19;;;;;;;2.13;1.27;;;11.50;99.90;;;;;;5119123;28;20287;-75
2022/11/16 04:50:45;;;;;;;1.80;1.23;;;11.50;99.90;;;;;;5115433;28;20513;-75
2022/11/16 04:53:11;;;;;;;2.30;1.07;;;11.50;99.90;;;;;;5116390;28;20497;-75
2022/11/16 04:55:37;;;;;;;1.33;1.00;;;11.50;99.90;;;;;;5115897;28;20853;-75
2022/11/16 04:58:03;;;;;;;1.97;1.20;;;11.50;99.90;;;;;;5119978;27;20987;-75
2022/11/16 05:00:29;;;;;;;2.40;1.80;;;11.40;99.90;;;;;;5126094;27;20172;-75
2022/11/16 05:02:55;;;;;;;1.60;1.00;;;11.40;99.90;;;;;;5135350;27;20517;-74
2022/11/16 05:05:21;;;;;;;1.73;1.03;;;11.40;99.90;;;;;;5114724;28;20407;-74
2022/11/16 05:07:47;;;;;;;1.47;1.20;;;11.40;99.90;;;;;;5114775;28;20206;-74
2022/11/16 05:10:13;;;;;;;2.33;1.60;;;11.30;99.90;;;;;;5115080;28;20398;-74
2022/11/16 05:12:39;;;;;;;2.47;1.50;;;11.30;99.90;;;;;;5114983;28;20177;-74
2022/11/16 05:15:06;;;;;;;1.67;1.20;;;11.40;99.90;;;;;;5114325;28;20418;-74
2022/11/16 05:17:32;;;;;;;2.93;1.53;;;11.40;99.90;;;;;;5113547;28;20422;-74
2022/11/16 05:22:41;;;;;;;1.40;0.93;;;11.40;99.90;;;;;;5114345;28;20500;-74
2022/11/16 05:25:08;;;;;;;2.10;1.30;;;11.40;99.90;;;;;;5113718;28;20410;-74
2022/11/16 05:27:34;;;;;;;1.30;1.10;;;11.30;99.90;;;;;;5112452;28;20165;-74
2022/11/16 05:30:00;;;;;;;2.07;0.90;;;11.30;99.90;;;;;;5114267;28;20406;-74
2022/11/16 05:32:26;;;;;;;1.60;1.03;;;11.30;99.90;;;;;;5113665;28;20582;-74
2022/11/16 05:34:52;;;;;;;7.50;1.43;;;11.20;99.90;;;;;;5113017;28;20169;-75
2022/11/16 05:37:19;;;;;;;1.30;1.00;;;11.10;99.90;;;;;;5114449;28;20395;-75
2022/11/16 05:39:45;;;;;;;2.27;1.10;;;11.00;99.90;;;;;;5114545;28;20214;-75
2022/11/16 05:42:11;;;;;;;1.93;1.30;;;10.90;99.90;;;;;;5114081;28;20837;-75
2022/11/16 05:44:36;;;;;;;3.00;1.30;;;10.80;99.90;;;;;;5113712;28;20204;-75
2022/11/16 05:47:02;;;;;;;2.03;1.10;;;10.70;99.90;;;;;;5114334;28;20167;-75
2022/11/16 05:49:27;;;;;;;9.90;1.47;;;10.60;99.90;;;;;;5114279;28;20167;-75
2022/11/16 05:51:53;;;;;;;1.50;1.00;;;10.60;99.90;;;;;;5114150;28;20180;-75
2022/11/16 05:54:21;;;;;;;3.47;1.30;;;10.50;99.90;;;;;;5113667;28;20230;-74
2022/11/16 05:56:48;;;;;;;2.23;1.33;;;10.50;99.90;;;;;;5113803;28;20185;-74
2022/11/16 05:59:18;;;;;;;4.37;1.70;;;10.50;99.90;;;;;;5113909;28;20467;-74
2022/11/16 06:01:45;;;;;;;1.63;1.50;;;10.40;99.90;;;;;;5113560;28;20954;-74
2022/11/16 06:04:11;;;;;;;2.40;1.30;;;10.40;99.90;;;;;;5112464;28;20505;-75
2022/11/16 06:06:37;;;;;;;1.97;1.37;;;10.30;99.90;;;;;;5113658;28;20474;-74
2022/11/16 06:09:03;;;;;;;7.73;3.20;;;10.30;99.90;;;;;;5114853;27;20498;-75
2022/11/16 06:11:29;;;;;;;6.50;3.20;;;10.20;99.90;;;;;;5125105;27;20234;-74
2022/11/16 06:13:55;;;;;;;2.37;1.37;;;10.20;99.90;;;;;;5113733;28;20410;-75
2022/11/16 06:16:21;;;;;;;2.03;1.33;;;10.10;99.90;;;;;;5113381;28;20459;-76
2022/11/16 06:18:46;;;;;;;1.67;1.20;;;10.00;99.90;;;;;;5113291;28;20172;-75
2022/11/16 06:21:14;;;;;;;2.00;1.27;;;10.00;99.90;;;;;;5113560;28;20590;-75
2022/11/16 06:23:39;;;;;;;3.40;1.60;;;10.00;99.90;;;;;;5113381;28;20447;-75
2022/11/16 06:26:06;;;;;;;2.30;1.37;;;10.00;99.90;;;;;;5112198;28;20407;-75
2022/11/16 06:28:32;;;;;;;2.40;1.93;;;10.00;99.90;;;;;;5113555;28;20248;-75
2022/11/16 06:30:57;;;;;;;5.27;1.43;;;10.00;99.90;;;;;;5113094;28;20418;-74
2022/11/16 06:33:23;;;;;;;3.20;1.70;;;9.90;99.90;;;;;;5111849;28;20429;-74
2022/11/16 06:35:49;;;;;;;3.07;1.60;;;9.90;99.90;;;;;;5111824;28;20161;-74
2022/11/16 06:38:17;;;;;;;3.37;1.80;;;9.80;99.90;;;;;;5112139;28;20172;-74
2022/11/16 06:40:53;;;;;;;2.30;1.60;;;9.80;99.90;;;;;;5113156;28;20165;-74
2022/11/16 06:43:20;;;;;;;3.00;1.80;;;9.80;99.90;;;;;;5113020;28;20458;-74
2022/11/16 06:45:53;;;;;;;1.97;1.67;;;9.70;99.90;;;;;;5115210;28;20403;-75
2022/11/16 06:48:19;;;;;;;2.30;1.60;;;9.60;99.90;;;;;;5116443;28;20428;-75
2022/11/16 06:50:49;;;;;;;8.57;2.20;;;9.60;99.90;;;;;;5117212;28;20453;-75
2022/11/16 06:53:14;;;;;;;7.60;3.07;;;9.50;99.90;;;;;;5113986;28;20926;-75
2022/11/16 06:55:41;;;;;;;18.27;2.30;;;9.40;99.90;;;;;;5115432;28;20418;-76
2022/11/16 06:58:06;;;;;;;4.33;2.10;;;9.30;99.90;;;;;;5116136;28;20261;-76
2022/11/16 07:00:32;;;;;;;8.77;1.50;;;9.40;99.90;;;;;;5116596;28;20422;-76
2022/11/16 07:02:57;;;;;;;5.10;2.03;;;9.40;99.90;;;;;;5114092;28;20194;-76
2022/11/16 07:05:23;;;;;;;3.63;2.33;;;9.40;99.90;;;;;;5113618;28;20181;-75
2022/11/16 07:07:53;;;;;;;5.37;2.03;;;9.40;99.90;;;;;;5114849;28;20564;-76
2022/11/16 07:10:19;;;;;;;3.13;2.03;;;9.30;99.90;;;;;;5114412;28;20172;-75
2022/11/16 07:12:44;;;;;;;7.80;1.53;;;9.30;99.90;;;;;;5116625;28;20811;-76
2022/11/16 07:15:10;;;;;;;3.23;1.73;;;9.30;99.90;;;;;;5116313;28;20244;-76
2022/11/16 07:17:35;;;;;;;2.93;1.70;;;9.30;99.90;;;;;;5114426;28;20657;-75
2022/11/16 07:20:01;;;;;;;2.17;1.70;;;9.30;99.90;;;;;;5114970;27;20168;-75
2022/11/16 07:22:26;;;;;;;8.80;1.97;;;9.20;99.90;;;;;;5124652;27;20203;-76
2022/11/16 07:24:52;;;;;;;2.47;1.80;;;9.10;99.90;;;;;;5100133;28;20527;-76
2022/11/16 07:27:17;;;;;;;4.60;1.90;;;9.10;99.90;;;;;;5096991;28;20168;-75
2022/11/16 07:29:43;;;;;;;4.30;1.73;;;9.10;99.90;;;;;;5112103;28;20172;-75
2022/11/16 07:32:08;;;;;;;2.83;2.10;;;9.10;99.90;;;;;;5112277;28;20762;-75
2022/11/16 07:34:34;;;;;;;4.20;1.90;;;9.10;99.90;;;;;;5111377;28;20771;-75
2022/11/16 07:36:59;;;;;;;5.50;1.43;;;9.10;99.90;;;;;;5112304;28;20181;-74
2022/11/16 07:39:25;;;;;;;6.63;1.90;;;9.10;99.90;;;;;;5111276;28;20176;-75
2022/11/16 07:41:52;;;;;;;4.27;1.53;;;9.10;99.90;;;;;;5112367;28;20189;-75
2022/11/16 07:44:18;;;;;;;2.70;2.10;;;9.10;99.90;;;;;;5093802;28;20593;-74
2022/11/16 07:46:43;;;;;;;10.33;2.27;;;9.10;99.90;;;;;;5112364;28;20406;-75
2022/11/16 07:49:17;;;;;;;7.87;3.07;;;9.20;99.90;;;;;;5112045;28;20891;-75
2022/11/16 07:51:43;;;;;;;9.63;2.33;;;9.60;99.90;;;;;;5112166;28;20322;-75
2022/11/16 07:54:13;;;;;;;5.70;1.70;;;10.10;99.90;;;;;;5112352;28;20920;-74
2022/11/16 07:56:39;;;;;;;20.60;9.33;;;10.40;99.90;;;;;;5112090;28;20173;-75
2022/11/16 07:59:05;;;;;;;3.87;1.87;;;10.50;99.90;;;;;;5112445;28;20419;-75
2022/11/16 08:01:31;;;;;;;6.83;2.30;;;10.70;99.90;;;;;;5112171;28;20431;-76
2022/11/16 08:03:58;;;;;;;3.63;1.73;;;11.00;99.90;;;;;;5111966;28;20799;-76
2022/11/16 08:06:26;;;;;;;1.80;1.40;;;11.60;99.90;;;;;;5093415;28;20826;-76
2022/11/16 08:08:51;;;;;;;3.13;1.67;;;12.00;99.90;;;;;;5110722;28;20411;-76
2022/11/16 08:11:17;;;;;;;3.20;1.53;;;12.40;99.90;;;;;;5111580;28;20437;-76
2022/11/16 08:13:43;;;;;;;2.60;1.30;;;13.10;99.90;;;;;;5112137;28;20184;-76
2022/11/16 08:16:14;;;;;;;3.90;1.27;;;13.60;99.90;;;;;;5093337;28;20406;-76
2022/11/16 08:18:41;;;;;;;3.10;1.33;;;14.00;99.90;;;;;;5111949;28;20177;-76
2022/11/16 08:21:08;;;;;;;1.60;1.27;;;14.20;99.90;;;;;;5111596;28;20469;-77
2022/11/16 08:23:34;;;;;;;3.67;1.23;;;13.80;99.90;;;;;;5111778;28;20514;-76
2022/11/16 08:26:02;;;;;;;3.13;1.23;;;13.30;99.90;;;;;;5113957;28;20896;-76
2022/11/16 08:28:29;;;;;;;1.73;1.20;;;12.90;99.90;;;;;;5116898;27;20187;-76
2022/11/16 08:30:55;;;;;;;3.33;1.90;;;12.60;99.90;;;;;;5126760;27;20461;-77
2022/11/16 08:33:22;;;;;;;3.60;2.13;;;12.30;99.90;;;;;;5114895;28;20418;-77
2022/11/16 08:35:48;;;;;;;5.27;2.17;;;12.30;99.90;;;;;;5115290;28;20824;-76
2022/11/16 08:38:13;;;;;;;3.83;1.63;;;12.60;99.90;;;;;;5115385;28;20405;-76
2022/11/16 08:40:39;;;;;;;4.27;2.10;;;12.40;99.90;;;;;;5115337;28;20169;-76
2022/11/16 08:43:05;;;;;;;5.00;1.20;;;12.20;99.90;;;;;;5116946;28;20196;-77
2022/11/16 08:45:32;;;;;;;4.00;1.70;;;12.10;99.90;;;;;;5119798;28;20767;-77
2022/11/16 08:47:58;;;;;;;3.20;1.70;;;12.00;99.90;;;;;;5120423;28;20169;-76
2022/11/16 08:50:24;;;;;;;2.70;1.80;;;11.90;99.90;;;;;;5121024;28;20442;-75
2022/11/16 08:52:49;;;;;;;4.73;1.63;;;11.90;99.90;;;;;;5113751;28;20431;-75
2022/11/16 08:55:17;;;;;;;8.60;1.40;;;11.80;99.90;;;;;;5114531;28;20256;-75
2022/11/16 08:57:42;;;;;;;4.83;1.70;;;11.60;99.90;;;;;;5113755;28;20275;-75
2022/11/16 09:00:10;;;;;;;4.37;1.30;;;11.60;99.90;;;;;;5114874;28;20971;-75
2022/11/16 09:02:35;;;;;;;10.43;1.80;;;11.40;99.90;;;;;;5096750;28;20192;-76
2022/11/16 09:05:02;;;;;;;8.17;1.60;;;11.50;99.90;;;;;;5114686;28;20441;-75
2022/11/16 09:07:27;;;;;;;4.50;1.50;;;11.70;99.90;;;;;;5119624;28;20732;-76
2022/11/16 09:09:53;;;;;;;5.20;1.60;;;12.10;99.90;;;;;;5120997;28;20391;-77
2022/11/16 09:12:18;;;;;;;3.57;2.07;;;12.50;99.90;;;;;;5120371;28;20598;-76
2022/11/16 09:14:44;;;;;;;3.67;1.23;;;12.50;99.90;;;;;;5115019;28;20230;-76
2022/11/16 09:17:09;;;;;;;5.60;1.30;;;12.60;99.90;;;;;;5114690;28;20173;-76
2022/11/16 09:19:35;;;;;;;4.23;1.20;;;12.70;99.90;;;;;;5114606;28;20181;-76
2022/11/16 09:22:00;;;;;;;2.40;1.30;;;12.70;99.90;;;;;;5113014;28;20238;-76
2022/11/16 09:24:26;;;;;;;10.10;1.60;;;12.90;99.90;;;;;;5112678;28;20208;-76
2022/11/16 09:26:52;;;;;;;7.07;1.50;;;13.30;99.90;;;;;;5114485;28;20167;-77
2022/11/16 09:29:17;;;;;;;5.33;1.60;;;14.20;99.90;;;;;;5114379;28;20200;-76
2022/11/16 09:31:43;;;;;;;5.97;1.57;;;14.90;99.90;;;;;;5114257;28;20185;-76
2022/11/16 09:34:08;;;;;;;5.83;1.27;;;15.80;99.90;;;;;;5115276;28;20255;-76
2022/11/16 09:36:34;;;;;;;6.27;1.70;;;16.90;99.90;;;;;;5118740;28;20179;-77
2022/11/16 09:38:59;;;;;;;2.60;1.50;;;17.40;99.90;;;;;;5118925;28;20638;-77
2022/11/16 09:41:34;;;;;;;4.60;2.13;;;17.80;99.90;;;;;;5126743;27;20722;-77
2022/11/16 09:44:11;;;;;;;3.10;1.37;;;17.70;99.90;;;;;;5115018;27;20219;-76
2022/11/16 09:46:42;;;;;;;2.57;1.33;;;17.40;99.90;;;;;;5114033;28;20489;-76
2022/11/16 09:49:14;;;;;;;6.90;1.60;;;17.60;99.90;;;;;;5114142;28;20741;-76
2022/11/16 09:51:42;;;;;;;4.03;1.60;;;17.80;99.90;;;;;;5113096;28;20431;-76
2022/11/16 09:54:15;;;;;;;3.80;1.10;;;17.70;99.90;;;;;;5114350;28;20411;-76
2022/11/16 09:56:41;;;;;;;4.40;1.80;;;18.00;99.90;;;;;;5114097;27;20419;-76
2022/11/16 09:59:07;;;;;;;3.93;1.37;;;18.30;99.90;;;;;;5114089;28;20418;-76
2022/11/16 10:01:41;;;;;;;5.70;1.53;;;18.80;99.90;;;;;;5114303;28;20425;-76
2022/11/16 10:04:10;;;;;;;4.00;1.50;;;18.90;99.90;;;;;;5112747;28;20207;-76
2022/11/16 10:06:59;;;;;;;2.67;1.20;;;19.30;99.90;;;;;;5113858;28;20482;-75
2022/11/16 10:09:26;;;;;;;3.37;1.80;;;19.40;99.90;;;;;;5113382;28;20407;-75
2022/11/16 10:12:10;;;;;;;2.40;1.53;;;19.60;99.90;;;;;;5113556;28;20434;-75
2022/11/16 10:15:03;;;;;;;4.90;1.43;;;20.30;99.90;;;;;;5113203;28;20407;-75
2022/11/16 10:18:05;;;;;;;3.10;1.40;;;21.00;94.40;;;;;;5113297;27;20391;-75
2022/11/16 10:20:52;;;;;;;4.67;1.67;;;21.00;90.60;;;;;;5113084;28;20402;-75
2022/11/16 10:23:18;;;;;;;3.40;1.30;;;20.80;89.50;;;;;;5111869;28;20461;-75
2022/11/16 10:25:47;;;;;;;3.20;1.57;;;20.90;92.30;;;;;;5112911;28;20391;-74
2022/11/16 10:29:00;;;;;;;2.70;1.30;;;21.10;87.40;;;;;;5113386;28;20173;-74
2022/11/16 10:31:50;;;;;;;4.67;2.43;;;21.30;85.20;;;;;;5107310;28;20938;-74
2022/11/16 10:34:26;;;;;;;13.60;2.40;;;20.80;83.30;;;;;;5114238;28;20398;-74
2022/11/16 10:36:59;;;;;;;2.97;1.30;;;21.90;86.20;;;;;;5114996;28;20406;-76
2022/11/16 10:39:26;;;;;;;3.37;1.73;;;22.50;73.60;;;;;;5113180;28;20928;-76
2022/11/16 10:41:51;;;;;;;5.70;2.10;;;23.10;69.50;;;;;;5113403;28;20903;-75
2022/11/16 10:44:34;;;;;;;3.60;1.63;;;22.80;65.80;;;;;;5111404;28;20533;-75
2022/11/16 10:47:17;;;;;;;4.00;1.67;;;22.90;66.80;;;;;;5113319;28;20196;-76
2022/11/16 10:49:55;;;;;;;1.60;1.30;;;23.00;63.40;;;;;;5111985;27;20493;-76
2022/11/16 10:52:22;;;;;;;3.70;2.00;;;22.50;64.00;;;;;;5113097;27;20553;-78
2022/11/16 10:54:48;;;;;;;4.60;1.80;;;22.90;65.10;;;;;;5112816;28;20927;-75
2022/11/16 10:57:13;;;;;;;5.13;1.47;;;23.30;64.20;;;;;;5111940;28;20403;-76
2022/11/16 10:59:47;;;;;;;2.50;1.33;;;23.40;60.50;;;;;;5113343;28;20409;-76
2022/11/16 11:02:32;;;;;;;2.93;1.53;;;24.50;60.50;;;;;;5112468;28;20193;-75
2022/11/16 11:05:20;;;;;;;2.27;1.33;;;25.60;58.30;;;;;;5112392;28;20411;-75
2022/11/16 11:07:50;;;;;;;4.27;2.27;;;25.80;56.50;;;;;;5111426;28;20409;-76
2022/11/16 11:10:36;;;;;;;4.97;1.70;;;26.10;54.00;;;;;;5112651;28;20428;-75
2022/11/16 11:13:04;;;;;;;5.07;1.60;;;25.90;53.30;;;;;;5112610;28;20419;-75
2022/11/16 11:15:29;;;;;;;3.83;1.33;;;25.80;53.00;;;;;;5112751;28;20395;-72
2022/11/16 11:18:22;;;;;;;2.83;1.70;;;25.70;52.50;;;;;;5112321;28;20395;-71
2022/11/16 11:21:08;;;;;;;4.10;1.53;;;25.80;52.70;;;;;;5112244;28;20253;-71
2022/11/16 11:23:44;;;;;;;2.13;1.30;;;26.10;53.00;;;;;;5110924;28;20570;-71
2022/11/16 11:26:36;;;;;;;4.73;2.00;;;26.00;52.30;;;;;;5111843;28;20406;-70
2022/11/16 11:29:15;;;;;;;3.77;1.30;;;27.00;51.60;;;;;;5112283;28;20888;-70
2022/11/16 11:31:48;;;;;;;5.83;1.80;;;26.50;50.00;;;;;;5112308;28;20410;-70
2022/11/16 11:34:16;;;;;;;4.70;1.20;;;26.30;50.40;;;;;;5112070;28;20817;-75
2022/11/16 11:37:03;;;;;;;1.97;1.17;;;26.00;49.90;;;;;;5112276;28;20391;-72
2022/11/16 11:39:36;;;;;;;4.30;1.20;;;26.50;49.70;;;;;;5092124;28;20403;-72
2022/11/16 11:42:06;;;;;;;1.70;0.90;;;25.80;48.80;;;;;;5090629;28;20438;-74
2022/11/16 11:44:53;;;;;;;2.90;1.20;;;25.30;49.20;;;;;;5091698;28;20470;-70
2022/11/16 11:47:50;;;;;;;1.80;1.03;;;25.70;50.30;;;;;;5110579;28;20509;-70
2022/11/16 11:50:21;;;;;;;2.23;0.97;;;25.50;50.30;;;;;;5111669;28;20391;-72
2022/11/16 11:53:03;;;;;;;2.77;1.20;;;25.10;50.60;;;;;;5111898;28;20430;-72
2022/11/16 11:55:29;;;;;;;2.83;1.30;;;25.40;50.90;;;;;;5111809;28;20434;-71
2022/11/16 11:57:56;;;;;;;3.67;1.87;;;25.80;51.40;;;;;;5110965;28;20476;-72
2022/11/16 12:00:22;;;;;;;1.87;1.00;;;25.40;50.90;;;;;;5112216;28;20168;-70
2022/11/16 12:03:12;;;;;;;3.23;0.90;;;25.10;50.10;;;;;;5116212;28;20422;-70
2022/11/16 12:05:55;;;;;;;3.20;1.20;;;25.10;50.60;;;;;;5116010;28;20423;-70
2022/11/16 12:08:33;;;;;;;2.50;1.17;;;25.30;50.50;;;;;;5114813;28;20529;-72
2022/11/16 12:11:08;;;;;;;2.90;1.37;;;25.00;49.90;;;;;;5114799;28;20559;-73
2022/11/16 12:14:00;;;;;;;3.03;1.13;;;24.90;50.40;;;;;;5115982;28;20463;-72
2022/11/16 12:16:46;;;;;;;1.60;0.97;;;24.40;50.50;;;;;;5115539;28;20911;-70
2022/11/16 12:19:42;;;;;;;2.03;1.20;;;24.40;50.80;;;;;;5115808;28;20403;-72
2022/11/16 12:22:27;;;;;;;2.50;1.20;;;23.10;51.00;;;;;;5115732;28;20422;-71
2022/11/16 12:25:19;;;;;;;2.10;1.03;;;21.50;52.80;;;;;;5115584;28;20443;-71
2022/11/16 12:27:57;;;;;;;2.80;0.90;;;20.30;54.90;;;;;;5115980;28;20402;-69
2022/11/16 12:30:23;;;;;;;2.50;1.13;;;20.20;57.80;;;;;;5115846;28;20402;-70
2022/11/16 12:33:21;;;;;;;2.80;0.90;;;20.60;59.80;;;;;;5115519;28;20436;-69
2022/11/16 12:35:53;;;;;;;3.23;1.30;;;21.30;61.00;;;;;;5114405;28;20551;-72
2022/11/16 12:38:55;;;;;;;1.13;0.80;;;22.20;59.90;;;;;;5115697;28;20407;-72
2022/11/16 12:41:47;;;;;;;2.53;1.00;;;22.10;58.50;;;;;;5092940;28;20437;-70
2022/11/16 12:44:32;;;;;;;1.73;1.30;;;21.90;58.40;;;;;;5115198;28;20785;-70
2022/11/16 12:47:35;;;;;;;4.40;1.13;;;20.60;59.40;;;;;;5115601;28;20411;-70
2022/11/16 12:50:25;;;;;;;3.73;1.30;;;19.30;69.50;;;;;;5115570;28;20434;-69
2022/11/16 12:53:16;;;;;;;6.30;1.20;;;19.20;93.70;;;;;;5115414;28;20419;-70
2022/11/16 12:55:58;;;;;;;2.33;1.00;;;20.30;91.60;;;;;;5114702;28;20414;-71
2022/11/16 12:58:39;;;;;;;3.60;1.37;;;20.50;79.00;;;;;;5114078;28;20777;-73
2022/11/16 13:01:26;;;;;;;2.53;1.13;;;20.50;80.00;;;;;;5115228;28;20479;-70
2022/11/16 13:04:19;;;;;;;1.40;0.70;;;20.20;87.40;;;;;;5113861;28;20457;-71
2022/11/16 13:06:59;;;;;;;7.40;1.30;;;20.90;76.80;;;;;;5104642;28;21158;-69
2022/11/16 13:09:28;;;;;;;4.40;1.17;;;20.40;77.40;;;;;;5115172;28;20876;-69
2022/11/16 13:11:57;;;;;;;3.07;1.10;;;18.90;92.10;;;;;;5113941;28;20455;-69
2022/11/16 13:14:30;;;;;;;1.10;0.70;;;18.20;99.90;;;;;;5114537;28;20403;-72
2022/11/16 13:16:58;;;;;;;2.83;1.20;;;17.50;99.90;;;;;;5093621;28;20788;-70
2022/11/16 13:19:25;;;;;;;1.67;1.07;;;17.00;99.90;;;;;;5094586;28;20503;-71
2022/11/16 13:22:04;;;;;;;2.40;1.10;;;16.70;99.90;;;;;;5094476;28;20522;-70
2022/11/16 13:24:43;;;;;;;1.60;0.80;;;16.50;99.90;;;;;;5094389;28;20450;-69
2022/11/16 13:27:34;;;;;;;5.20;1.20;;;16.30;99.90;;;;;;5094539;28;20503;-69
2022/11/16 13:30:20;;;;;;;4.70;0.80;;;16.20;99.90;;;;;;5094468;28;20740;-70
2022/11/16 13:32:45;;;;;;;2.50;0.83;;;16.20;99.90;;;;;;5094307;28;20423;-68
2022/11/16 13:35:15;;;;;;;11.23;1.37;;;16.30;99.90;;;;;;5104630;28;20406;-71
2022/11/16 13:37:41;;;;;;;5.53;1.30;;;16.40;99.90;;;;;;5114204;28;20169;-71
2022/11/16 13:40:20;;;;;;;2.03;1.10;;;16.30;99.90;;;;;;5114288;28;20430;-71
2022/11/16 13:43:01;;;;;;;1.00;0.70;;;16.10;99.90;;;;;;5114412;28;20793;-71